createdAt,value
2019-01-11T00:00:49.447Z,0.40
2019-01-11T00:03:17.841Z,0.40
2019-01-11T00:05:46.249Z,0.50
2019-01-11T00:08:14.642Z,0.40
2019-01-11T00:10:43.048Z,0.40
2019-01-11T00:13:11.454Z,0.40
2019-01-11T00:15:39.930Z,0.40
2019-01-11T00:18:08.654Z,0.40
2019-01-11T00:20:37.045Z,0.40
2019-01-11T00:23:05.757Z,0.40
2019-01-11T00:25:34.231Z,0.40
2019-01-11T00:28:02.640Z,0.50
2019-01-11T00:30:31.049Z,0.50
2019-01-11T00:32:59.681Z,0.50
2019-01-11T00:35:28.097Z,0.40
2019-01-11T00:37:56.505Z,0.40
2019-01-11T00:40:24.911Z,0.40
2019-01-11T00:42:53.550Z,0.40
2019-01-11T00:45:22.203Z,0.40
2019-01-11T00:47:50.847Z,0.50
2019-01-11T00:50:20.909Z,0.50
2019-01-11T00:52:50.259Z,0.50
2019-01-11T00:55:18.723Z,0.50
2019-01-11T00:57:47.135Z,0.50
2019-01-11T01:00:18.604Z,0.50
2019-01-11T01:02:47.083Z,0.50
2019-01-11T01:05:15.823Z,0.50
2019-01-11T01:07:44.231Z,0.50
2019-01-11T01:10:12.841Z,0.50
2019-01-11T01:12:41.555Z,0.50
2019-01-11T01:15:11.384Z,0.50
2019-01-11T01:17:39.962Z,0.50
2019-01-11T01:20:14.898Z,0.50
2019-01-11T01:22:43.374Z,0.50
2019-01-11T01:25:12.291Z,0.50
2019-01-11T01:27:40.839Z,0.50
2019-01-11T01:30:19.502Z,0.50
2019-01-11T01:32:48.315Z,0.50
2019-01-11T01:35:16.951Z,0.50
2019-01-11T01:37:45.667Z,0.50
2019-01-11T01:40:15.798Z,0.60
2019-01-11T01:42:44.334Z,0.60
2019-01-11T01:45:16.091Z,0.60
2019-01-11T01:47:44.751Z,0.60
2019-01-11T01:50:13.624Z,0.60
2019-01-11T01:52:42.266Z,0.60
2019-01-11T01:55:12.707Z,0.70
2019-01-11T01:57:41.101Z,0.60
2019-01-11T02:00:15.190Z,0.60
2019-01-11T02:02:43.827Z,0.60
2019-01-11T02:05:12.293Z,0.60
2019-01-11T02:07:40.696Z,0.70
2019-01-11T02:10:11.665Z,0.70
2019-01-11T02:12:40.133Z,0.70
2019-01-11T02:15:10.371Z,0.70
2019-01-11T02:17:38.896Z,0.60
2019-01-11T02:20:15.497Z,0.60
2019-01-11T02:22:44.137Z,0.60
2019-01-11T02:25:13.066Z,0.70
2019-01-11T02:27:41.465Z,0.70
2019-01-11T02:30:12.936Z,0.70
2019-01-11T02:32:41.330Z,0.70
2019-01-11T02:35:09.785Z,0.70
2019-01-11T02:37:38.195Z,0.70
2019-01-11T02:40:09.033Z,0.70
2019-01-11T02:42:37.432Z,0.70
2019-01-11T02:45:08.875Z,0.70
2019-01-11T02:47:37.511Z,0.60
2019-01-11T02:50:08.554Z,0.60
2019-01-11T02:52:36.964Z,0.70
2019-01-11T02:55:07.101Z,0.70
2019-01-11T02:57:35.743Z,0.70
2019-01-11T03:00:18.793Z,0.70
2019-01-11T03:02:47.409Z,0.70
2019-01-11T03:05:15.936Z,0.70
2019-01-11T03:07:44.678Z,0.70
2019-01-11T03:10:18.734Z,0.70
2019-01-11T03:12:47.273Z,0.70
2019-01-11T03:15:16.818Z,0.70
2019-01-11T03:17:45.281Z,0.70
2019-01-11T03:20:15.726Z,0.70
2019-01-11T03:22:44.403Z,0.70
2019-01-11T03:25:14.379Z,0.80
2019-01-11T03:27:43.410Z,0.70
2019-01-11T03:30:16.935Z,0.80
2019-01-11T03:32:45.409Z,0.70
2019-01-11T03:35:15.499Z,0.70
2019-01-11T03:37:44.937Z,0.70
2019-01-11T03:40:15.979Z,0.70
2019-01-11T03:42:44.445Z,0.70
2019-01-11T03:45:15.394Z,0.70
2019-01-11T03:47:44.096Z,0.70
2019-01-11T03:50:15.278Z,0.70
2019-01-11T03:52:43.676Z,0.70
2019-01-11T03:55:13.696Z,0.70
2019-01-11T03:57:42.321Z,0.80
2019-01-11T04:00:16.658Z,0.80
2019-01-11T04:02:45.062Z,0.70
2019-01-11T04:05:13.903Z,0.80
2019-01-11T04:07:42.361Z,0.70
2019-01-11T04:10:14.210Z,0.70
2019-01-11T04:12:42.606Z,0.70
2019-01-11T04:15:13.552Z,0.70
2019-01-11T04:17:42.254Z,0.70
2019-01-11T04:20:16.579Z,0.70
2019-01-11T04:22:46.643Z,0.70
2019-01-11T04:25:19.173Z,0.70
2019-01-11T04:27:47.706Z,0.60
2019-01-11T04:30:16.951Z,0.60
2019-01-11T04:32:45.413Z,0.60
2019-01-11T04:35:14.114Z,0.60
2019-01-11T04:37:42.585Z,0.60
2019-01-11T04:40:12.323Z,0.60
2019-01-11T04:42:40.786Z,0.60
2019-01-11T04:45:10.026Z,0.60
2019-01-11T04:47:38.422Z,0.60
2019-01-11T04:50:10.097Z,0.60
2019-01-11T04:52:38.549Z,0.60
2019-01-11T04:55:07.427Z,0.60
2019-01-11T04:57:36.118Z,0.60
2019-01-11T05:00:07.613Z,0.60
2019-01-11T05:02:36.003Z,0.60
2019-01-11T05:05:06.049Z,0.60
2019-01-11T05:07:34.456Z,0.60
2019-01-11T05:10:04.215Z,0.60
2019-01-11T05:12:32.630Z,0.60
2019-01-11T05:15:01.033Z,0.60
2019-01-11T05:17:29.458Z,0.50
2019-01-11T05:19:58.088Z,0.60
2019-01-11T05:22:26.542Z,0.60
2019-01-11T05:24:54.946Z,0.60
2019-01-11T05:27:23.334Z,0.60
2019-01-11T05:29:51.980Z,0.60
2019-01-11T05:32:20.380Z,0.60
2019-01-11T05:34:48.771Z,0.60
2019-01-11T05:37:17.245Z,0.50
2019-01-11T05:39:45.632Z,0.60
2019-01-11T05:42:14.035Z,0.60
2019-01-11T05:44:42.751Z,0.60
2019-01-11T05:47:11.149Z,0.60
2019-01-11T05:49:39.994Z,0.60
2019-01-11T05:52:08.401Z,0.60
2019-01-11T05:54:36.802Z,0.60
2019-01-11T05:57:05.203Z,0.60
2019-01-11T05:59:33.598Z,0.60
2019-01-11T06:02:02.002Z,0.70
2019-01-11T06:04:32.038Z,0.60
2019-01-11T06:07:17.170Z,0.60
2019-01-11T06:09:45.590Z,0.60
2019-01-11T06:12:14.042Z,0.70
2019-01-11T06:14:42.437Z,0.60
2019-01-11T06:17:10.841Z,0.60
2019-01-11T06:19:39.233Z,0.60
2019-01-11T06:22:07.647Z,0.70
2019-01-11T06:24:36.063Z,0.70
2019-01-11T06:27:04.609Z,0.70
2019-01-11T06:29:32.997Z,0.70
2019-01-11T06:32:01.394Z,0.60
2019-01-11T06:34:29.795Z,0.60
2019-01-11T06:36:58.187Z,0.70
2019-01-11T06:39:26.650Z,0.60
2019-01-11T06:41:56.689Z,0.70
2019-01-11T06:44:25.097Z,0.70
2019-01-11T06:46:53.486Z,0.70
2019-01-11T06:49:22.122Z,0.70
2019-01-11T06:51:50.529Z,0.80
2019-01-11T06:54:19.154Z,0.80
2019-01-11T06:56:47.561Z,0.80
2019-01-11T06:59:15.965Z,0.80
2019-01-11T07:01:44.359Z,0.80
2019-01-11T07:04:12.989Z,0.80
2019-01-11T07:06:41.627Z,0.70
2019-01-11T07:09:10.326Z,0.80
2019-01-11T07:11:38.726Z,0.70
2019-01-11T07:14:07.129Z,0.70
2019-01-11T07:16:35.535Z,0.70
2019-01-11T07:19:04.010Z,0.70
2019-01-11T07:21:32.407Z,0.70
2019-01-11T07:24:00.805Z,0.70
2019-01-11T07:26:29.276Z,0.70
2019-01-11T07:28:57.680Z,0.70
2019-01-11T07:31:26.469Z,0.70
2019-01-11T07:33:54.854Z,0.70
2019-01-11T07:36:24.894Z,0.70
2019-01-11T07:38:53.324Z,0.70
2019-01-11T07:41:21.713Z,0.70
2019-01-11T07:43:50.102Z,0.70
2019-01-11T07:46:18.825Z,0.80
2019-01-11T07:48:47.225Z,0.80
2019-01-11T07:51:15.879Z,0.80
2019-01-11T07:53:44.267Z,0.80
2019-01-11T07:56:12.734Z,0.80
2019-01-11T07:58:41.126Z,0.80
2019-01-11T08:01:09.528Z,0.90
2019-01-11T08:03:37.925Z,0.90
2019-01-11T08:06:06.321Z,0.90
2019-01-11T08:08:34.711Z,0.90
2019-01-11T08:11:03.182Z,0.90
2019-01-11T08:13:31.638Z,1.00
2019-01-11T08:16:00.274Z,1.00
2019-01-11T08:18:28.665Z,0.90
2019-01-11T08:20:57.078Z,0.90
2019-01-11T08:23:25.457Z,1.00
2019-01-11T08:25:53.863Z,1.00
2019-01-11T08:28:23.434Z,1.00
2019-01-11T08:30:51.903Z,1.00
2019-01-11T08:33:20.295Z,1.00
2019-01-11T08:35:48.693Z,1.00
2019-01-11T08:38:17.344Z,1.00
2019-01-11T08:40:45.742Z,1.00
2019-01-11T08:43:14.379Z,1.00
2019-01-11T08:45:43.019Z,1.00
2019-01-11T08:48:13.182Z,1.00
2019-01-11T08:50:41.582Z,1.00
2019-01-11T08:53:09.986Z,1.10
2019-01-11T08:55:38.618Z,1.10
2019-01-11T08:58:07.021Z,1.10
2019-01-11T09:00:35.433Z,1.10
2019-01-11T09:03:03.898Z,1.10
2019-01-11T09:05:32.318Z,1.10
2019-01-11T09:08:00.724Z,1.20
2019-01-11T09:10:29.257Z,1.20
2019-01-11T09:12:57.658Z,1.20
2019-01-11T09:15:26.050Z,1.20
2019-01-11T09:17:59.041Z,1.20
2019-01-11T09:20:27.437Z,1.20
2019-01-11T09:22:55.843Z,1.20
2019-01-11T09:25:24.233Z,1.20
2019-01-11T09:27:52.643Z,1.20
2019-01-11T09:30:21.038Z,1.20
2019-01-11T09:32:49.450Z,1.30
2019-01-11T09:35:18.086Z,1.20
2019-01-11T09:37:47.329Z,1.30
2019-01-11T09:40:16.965Z,1.30
2019-01-11T09:42:45.370Z,1.30
2019-01-11T09:45:14.075Z,1.40
2019-01-11T09:47:42.713Z,1.40
2019-01-11T09:50:11.179Z,1.40
2019-01-11T09:52:39.837Z,1.40
2019-01-11T09:55:09.110Z,1.40
2019-01-11T09:57:37.523Z,1.40
2019-01-11T10:00:20.789Z,1.50
2019-01-11T10:02:51.071Z,1.40
2019-01-11T10:05:19.636Z,1.50
2019-01-11T10:07:48.042Z,1.40
2019-01-11T10:10:16.432Z,1.50
2019-01-11T10:12:44.846Z,1.50
2019-01-11T10:15:14.977Z,1.50
2019-01-11T10:17:43.392Z,1.50
2019-01-11T10:20:14.502Z,1.40
2019-01-11T10:22:42.982Z,1.40
2019-01-11T10:25:11.714Z,1.40
2019-01-11T10:27:40.380Z,1.50
2019-01-11T10:30:11.878Z,1.50
2019-01-11T10:32:40.271Z,1.50
2019-01-11T10:35:10.122Z,1.60
2019-01-11T10:37:38.509Z,1.60
2019-01-11T10:40:09.959Z,1.60
2019-01-11T10:42:39.636Z,1.60
2019-01-11T10:45:11.613Z,1.60
2019-01-11T10:47:40.253Z,1.60
2019-01-11T10:50:14.423Z,1.60
2019-01-11T10:52:42.897Z,1.70
2019-01-11T10:55:13.681Z,1.70
2019-01-11T10:57:42.205Z,1.70
2019-01-11T11:00:13.690Z,1.70
2019-01-11T11:02:42.150Z,1.60
2019-01-11T11:05:10.685Z,1.60
2019-01-11T11:07:39.381Z,1.60
2019-01-11T11:10:10.216Z,1.70
2019-01-11T11:12:38.616Z,1.70
2019-01-11T11:15:09.970Z,1.70
2019-01-11T11:17:38.373Z,1.70
2019-01-11T11:20:09.915Z,1.70
2019-01-11T11:22:38.318Z,1.90
2019-01-11T11:25:10.022Z,1.90
2019-01-11T11:27:38.420Z,1.90
2019-01-11T11:30:09.961Z,1.90
2019-01-11T11:32:58.231Z,1.90
2019-01-11T11:35:27.051Z,1.90
2019-01-11T11:37:55.532Z,1.90
2019-01-11T11:40:24.287Z,1.90
2019-01-11T11:42:52.684Z,2.00
2019-01-11T11:45:21.159Z,2.00
2019-01-11T11:47:49.549Z,2.00
2019-01-11T11:50:17.953Z,2.00
2019-01-11T11:52:46.362Z,2.10
2019-01-11T11:55:14.841Z,2.10
2019-01-11T11:57:43.247Z,2.10
2019-01-11T12:00:22.775Z,2.10
2019-01-11T12:02:51.229Z,2.10
2019-01-11T12:05:19.638Z,2.10
2019-01-11T12:07:48.369Z,2.20
2019-01-11T12:10:16.933Z,2.20
2019-01-11T12:12:45.338Z,2.20
2019-01-11T12:15:15.485Z,2.30
2019-01-11T12:17:43.896Z,2.40
2019-01-11T12:20:18.026Z,2.40
2019-01-11T12:22:46.437Z,2.40
2019-01-11T12:25:14.837Z,2.50
2019-01-11T12:27:46.214Z,2.50
2019-01-11T12:30:16.459Z,2.50
2019-01-11T12:32:44.868Z,2.60
2019-01-11T12:35:13.345Z,2.80
2019-01-11T12:37:41.985Z,2.80
2019-01-11T12:40:12.755Z,2.90
2019-01-11T12:42:41.385Z,3.00
2019-01-11T12:45:12.442Z,3.10
2019-01-11T12:47:40.846Z,3.20
2019-01-11T12:50:12.695Z,3.20
2019-01-11T12:52:41.104Z,3.30
2019-01-11T12:55:09.642Z,3.30
2019-01-11T12:57:38.106Z,3.30
2019-01-11T13:00:10.102Z,3.30
2019-01-11T13:02:38.512Z,3.40
2019-01-11T13:05:09.252Z,3.40
2019-01-11T13:07:37.654Z,3.40
2019-01-11T13:10:08.965Z,3.40
2019-01-11T13:12:37.366Z,3.40
2019-01-11T13:15:09.420Z,3.40
2019-01-11T13:17:38.069Z,3.40
2019-01-11T13:20:09.874Z,3.40
2019-01-11T13:22:38.349Z,3.40
2019-01-11T13:25:08.261Z,3.40
2019-01-11T13:27:36.657Z,3.40
2019-01-11T13:30:08.791Z,3.50
2019-01-11T13:32:37.200Z,3.40
2019-01-11T13:35:07.398Z,3.50
2019-01-11T13:37:35.808Z,3.50
2019-01-11T13:40:13.335Z,3.50
2019-01-11T13:42:41.741Z,3.50
2019-01-11T13:45:10.274Z,3.50
2019-01-11T13:47:38.683Z,3.50
2019-01-11T13:50:13.165Z,3.50
2019-01-11T13:52:41.814Z,4.10
2019-01-11T13:55:10.455Z,3.60
2019-01-11T13:57:38.854Z,3.60
2019-01-11T14:00:16.050Z,3.60
2019-01-11T14:02:44.706Z,3.70
2019-01-11T14:05:13.110Z,3.70
2019-01-11T14:07:41.585Z,3.70
2019-01-11T14:10:10.050Z,3.80
2019-01-11T14:12:38.449Z,3.70
2019-01-11T14:15:09.483Z,3.70
2019-01-11T14:17:37.923Z,3.80
2019-01-11T14:20:09.526Z,3.80
2019-01-11T14:22:37.997Z,3.80
2019-01-11T14:25:08.641Z,3.80
2019-01-11T14:27:37.119Z,3.80
2019-01-11T14:30:08.834Z,3.90
2019-01-11T14:32:37.476Z,3.90
2019-01-11T14:35:07.720Z,3.90
2019-01-11T14:37:36.112Z,3.90
2019-01-11T14:40:07.922Z,3.90
2019-01-11T14:42:36.315Z,3.90
2019-01-11T14:45:07.960Z,4.00
2019-01-11T14:47:36.362Z,3.90
2019-01-11T14:50:10.461Z,3.90
2019-01-11T14:52:38.860Z,4.00
2019-01-11T14:55:07.411Z,4.00
2019-01-11T14:57:36.049Z,4.00
2019-01-11T15:00:07.607Z,4.00
2019-01-11T15:02:36.249Z,4.00
2019-01-11T15:05:06.941Z,4.00
2019-01-11T15:07:35.346Z,4.10
2019-01-11T15:10:05.558Z,4.10
2019-01-11T15:12:33.954Z,4.10
2019-01-11T15:15:02.414Z,4.20
2019-01-11T15:17:31.049Z,4.20
2019-01-11T15:19:59.687Z,4.30
2019-01-11T15:22:28.080Z,4.30
2019-01-11T15:24:56.481Z,4.30
2019-01-11T15:27:24.878Z,4.30
2019-01-11T15:29:53.270Z,4.30
2019-01-11T15:32:21.669Z,4.40
2019-01-11T15:34:50.079Z,4.40
2019-01-11T15:37:18.461Z,4.40
2019-01-11T15:39:46.888Z,4.50
2019-01-11T15:42:15.290Z,4.50
2019-01-11T15:44:43.701Z,4.50
2019-01-11T15:47:12.158Z,4.50
2019-01-11T15:49:40.569Z,4.50
2019-01-11T15:52:08.993Z,4.60
2019-01-11T15:54:37.630Z,4.60
2019-01-11T15:57:06.041Z,4.60
2019-01-11T15:59:37.515Z,4.70
2019-01-11T16:02:05.910Z,4.70
2019-01-11T16:04:40.370Z,4.70
2019-01-11T16:07:09.013Z,4.70
2019-01-11T16:09:55.397Z,4.70
2019-01-11T16:12:25.147Z,4.70
2019-01-11T16:15:02.366Z,4.70
2019-01-11T16:17:32.549Z,4.80
2019-01-11T16:20:01.193Z,4.80
2019-01-11T16:22:29.629Z,4.80
2019-01-11T16:24:58.054Z,4.80
2019-01-11T16:27:27.033Z,4.80
2019-01-11T16:29:55.430Z,4.80
2019-01-11T16:32:23.837Z,4.90
2019-01-11T16:34:52.241Z,4.90
2019-01-11T16:37:20.635Z,5.00
2019-01-11T16:39:49.267Z,5.00
2019-01-11T16:42:17.679Z,5.00
2019-01-11T16:44:46.299Z,5.00
2019-01-11T16:47:14.722Z,5.00
2019-01-11T16:49:43.173Z,5.00
2019-01-11T16:52:15.330Z,5.00
2019-01-11T16:54:41.766Z,5.10
2019-01-11T16:57:10.142Z,5.10
2019-01-11T16:59:38.549Z,5.20
2019-01-11T17:02:06.943Z,5.10
2019-01-11T17:04:35.339Z,5.20
2019-01-11T17:07:03.819Z,5.10
2019-01-11T17:09:32.235Z,5.20
2019-01-11T17:12:00.683Z,5.20
2019-01-11T17:14:29.090Z,5.20
2019-01-11T17:16:57.722Z,5.30
2019-01-11T17:19:27.702Z,5.30
2019-01-11T17:21:56.091Z,5.30
2019-01-11T17:24:24.507Z,5.30
2019-01-11T17:26:52.899Z,5.40
2019-01-11T17:29:21.322Z,5.40
2019-01-11T17:31:49.726Z,5.30
2019-01-11T17:34:18.365Z,5.40
2019-01-11T17:36:46.770Z,5.40
2019-01-11T17:39:15.192Z,5.40
2019-01-11T17:41:43.881Z,5.40
2019-01-11T17:44:12.515Z,5.50
2019-01-11T17:46:41.168Z,5.50
2019-01-11T17:49:09.814Z,5.50
2019-01-11T17:51:38.445Z,5.50
2019-01-11T17:54:06.870Z,5.50
2019-01-11T17:56:35.262Z,5.60
2019-01-11T17:59:03.741Z,5.50
2019-01-11T18:01:32.140Z,5.50
2019-01-11T18:04:00.549Z,5.60
2019-01-11T18:06:28.942Z,5.60
2019-01-11T18:08:57.347Z,5.60
2019-01-11T18:11:25.750Z,5.60
2019-01-11T18:13:54.151Z,5.60
2019-01-11T18:16:22.591Z,5.70
2019-01-11T18:18:50.994Z,5.60
2019-01-11T18:21:19.626Z,5.70
2019-01-11T18:23:48.038Z,5.70
2019-01-11T18:26:16.427Z,5.60
2019-01-11T18:28:44.826Z,5.60
2019-01-11T18:31:13.275Z,5.70
2019-01-11T18:33:41.677Z,5.60
2019-01-11T18:36:10.074Z,5.70
2019-01-11T18:38:38.542Z,5.70
2019-01-11T18:41:06.951Z,5.70
2019-01-11T18:43:35.342Z,5.70
2019-01-11T18:46:04.051Z,5.70
2019-01-11T18:48:32.448Z,5.70
2019-01-11T18:51:02.820Z,5.70
2019-01-11T18:53:31.490Z,5.70
2019-01-11T18:56:13.861Z,5.70
2019-01-11T18:58:42.264Z,5.70
2019-01-11T19:01:10.662Z,5.70
2019-01-11T19:03:39.073Z,5.70
2019-01-11T19:06:07.470Z,5.70
2019-01-11T19:08:36.114Z,5.70
2019-01-11T19:11:04.586Z,5.70
2019-01-11T19:13:32.980Z,5.70
2019-01-11T19:16:01.392Z,5.70
2019-01-11T19:18:30.032Z,5.70
2019-01-11T19:20:58.433Z,5.70
2019-01-11T19:23:28.785Z,5.70
2019-01-11T19:25:57.190Z,5.70
2019-01-11T19:28:25.590Z,5.70
2019-01-11T19:30:54.068Z,5.70
2019-01-11T19:33:22.471Z,5.70
2019-01-11T19:35:50.941Z,5.70
2019-01-11T19:38:19.355Z,5.70
2019-01-11T19:40:48.008Z,5.70
2019-01-11T19:43:16.398Z,5.70
2019-01-11T19:45:44.880Z,5.70
2019-01-11T19:48:13.316Z,5.70
2019-01-11T19:50:41.709Z,5.70
2019-01-11T19:53:10.120Z,5.70
2019-01-11T19:55:44.505Z,5.70
2019-01-11T19:58:12.901Z,5.70
2019-01-11T20:00:41.325Z,5.70
2019-01-11T20:03:09.706Z,5.60
2019-01-11T20:05:38.100Z,5.70
2019-01-11T20:08:07.109Z,5.70
2019-01-11T20:10:35.808Z,5.70
2019-01-11T20:13:04.486Z,5.70
2019-01-11T20:15:33.263Z,5.70
2019-01-11T20:18:01.751Z,5.60
2019-01-11T20:20:30.197Z,5.60
2019-01-11T20:23:02.449Z,5.60
2019-01-11T20:25:28.786Z,5.60
2019-01-11T20:27:57.183Z,5.60
2019-01-11T20:30:26.427Z,5.70
2019-01-11T20:32:54.825Z,5.70
2019-01-11T20:35:23.642Z,5.70
2019-01-11T20:37:52.117Z,5.70
2019-01-11T20:40:20.522Z,5.70
2019-01-11T20:42:49.290Z,5.70
2019-01-11T20:45:19.575Z,5.70
2019-01-11T20:47:48.215Z,5.70
2019-01-11T20:50:18.770Z,5.70
2019-01-11T20:52:47.249Z,5.70
2019-01-11T20:55:16.082Z,5.60
2019-01-11T20:57:45.012Z,5.70
2019-01-11T21:00:16.835Z,5.70
2019-01-11T21:02:45.227Z,5.70
2019-01-11T21:05:16.407Z,5.70
2019-01-11T21:07:44.849Z,5.70
2019-01-11T21:10:14.734Z,5.70
2019-01-11T21:12:43.204Z,5.70
2019-01-11T21:15:14.855Z,5.70
2019-01-11T21:17:43.382Z,5.70
2019-01-11T21:20:14.446Z,5.70
2019-01-11T21:22:43.281Z,5.70
2019-01-11T21:25:19.302Z,5.70
2019-01-11T21:27:47.847Z,5.70
2019-01-11T21:30:26.753Z,5.70
2019-01-11T21:32:55.259Z,5.70
2019-01-11T21:35:24.150Z,5.70
2019-01-11T21:37:52.600Z,5.60
2019-01-11T21:40:21.803Z,5.70
2019-01-11T21:42:50.733Z,5.70
2019-01-11T21:45:20.938Z,5.70
2019-01-11T21:47:49.398Z,5.70
2019-01-11T21:50:22.524Z,5.70
2019-01-11T21:52:51.487Z,5.70
2019-01-11T21:55:22.037Z,5.70
2019-01-11T21:57:50.458Z,5.70
2019-01-11T22:00:27.861Z,5.70
2019-01-11T22:02:56.438Z,5.60
2019-01-11T22:05:24.921Z,5.60
2019-01-11T22:07:53.324Z,5.60
2019-01-11T22:10:21.738Z,5.60
2019-01-11T22:12:50.138Z,5.70
2019-01-11T22:15:19.483Z,5.70
2019-01-11T22:17:48.263Z,5.60
2019-01-11T22:20:17.954Z,5.60
2019-01-11T22:22:46.637Z,5.60
2019-01-11T22:25:17.477Z,5.60
2019-01-11T22:27:45.873Z,5.60
2019-01-11T22:30:16.654Z,5.70
2019-01-11T22:32:45.085Z,5.60
2019-01-11T22:35:14.034Z,5.60
2019-01-11T22:37:42.536Z,5.60
2019-01-11T22:40:14.049Z,5.60
2019-01-11T22:42:42.449Z,5.60
2019-01-11T22:45:13.196Z,5.60
2019-01-11T22:47:41.666Z,5.60
2019-01-11T22:50:12.611Z,5.50
2019-01-11T22:52:41.318Z,5.60
2019-01-11T22:55:11.962Z,5.50
2019-01-11T22:57:40.831Z,5.60
2019-01-11T23:00:12.667Z,5.60
2019-01-11T23:02:41.390Z,5.60
2019-01-11T23:05:10.150Z,5.60
2019-01-11T23:07:38.899Z,5.60
2019-01-11T23:10:12.923Z,5.60
2019-01-11T23:12:43.789Z,5.60
2019-01-11T23:15:15.273Z,5.60
2019-01-11T23:17:47.367Z,5.60
2019-01-11T23:20:15.777Z,5.50
2019-01-11T23:22:44.177Z,5.60
2019-01-11T23:25:12.638Z,5.50
2019-01-11T23:27:41.362Z,5.60
2019-01-11T23:30:13.084Z,5.60
2019-01-11T23:32:41.502Z,5.50
2019-01-11T23:35:10.037Z,5.50
2019-01-11T23:37:38.450Z,5.60
2019-01-11T23:40:09.782Z,5.50
2019-01-11T23:42:38.261Z,5.50
2019-01-11T23:45:09.705Z,5.50
2019-01-11T23:47:38.374Z,5.60
2019-01-11T23:50:12.315Z,5.60
2019-01-11T23:52:40.721Z,5.60
2019-01-11T23:55:10.550Z,5.50
2019-01-11T23:57:38.989Z,5.60
